Observation data for Slaton on 05/27/2019      Previous  Date  Next       Current Mesonet Observations  Soil Data  Daily Summary Page  Observations in Plain Language
KSLS 270500Z 15007KT 20/18 A2989 RMK A01 T01970175  RH  089%=      5-min Rain = 0
KSLS 270505Z 15007KT 20/17 A2989 RMK A01 T01950174  RH  090%=      5-min Rain = 0
KSLS 270510Z 15007KT 19/17 A2989 RMK A01 T01930173  RH  090%=      5-min Rain = 0
KSLS 270515Z 14007KT 19/17 A2989 RMK A01 T01910172  RH  091%=      5-min Rain = 0
KSLS 270520Z 15007KT 19/17 A2989 RMK A01 T01900172  RH  092%=      5-min Rain = 0
KSLS 270525Z 15006KT 19/17 A2989 RMK A01 T01900172  RH  092%=      5-min Rain = 0
KSLS 270530Z 15004KT 19/17 A2989 RMK A01 T01900172  RH  092%=      5-min Rain = 0
KSLS 270535Z 13003KT 19/17 A2989 RMK A01 T01890171  RH  092%=      5-min Rain = 0
KSLS 270540Z 14005KT 19/17 A2989 RMK A01 T01890171  RH  091%=      5-min Rain = 0
KSLS 270545Z 15005KT 19/17 A2989 RMK A01 T01880170  RH  091%=      5-min Rain = 0
KSLS 270550Z 14006KT 19/17 A2989 RMK A01 T01880170  RH  091%=      5-min Rain = 0
KSLS 270555Z 14005KT 19/17 A2988 RMK A01 T01870169  RH  092%=      5-min Rain = 0
KSLS 270600Z 15005KT 19/17 A2988 RMK A01 T01860169  RH  092%=      5-min Rain = 0
KSLS 270605Z 16006KT 19/17 A2988 RMK A01 T01870170  RH  092%=      5-min Rain = 0
KSLS 270610Z 16006KT 19/17 A2988 RMK A01 T01900171  RH  091%=      5-min Rain = 0
KSLS 270615Z 16006KT 19/17 A2988 RMK A01 T01930172  RH  090%=      5-min Rain = 0
KSLS 270620Z 16008KT 20/17 A2988 RMK A01 T01950173  RH  089%=      5-min Rain = 0
KSLS 270625Z 18006KT 20/17 A2988 RMK A01 T01980172  RH  087%=      5-min Rain = 0
KSLS 270630Z 26007KT 20/17 A2991 RMK A01 T01970172  RH  087%=      5-min Rain = 0
KSLS 270635Z 26008G13KT 20/18 A2992 RMK A01 T02020175  RH  086%=      5-min Rain = 0
KSLS 270640Z 18007G12KT 20/17 A2989 RMK A01 T02040174  RH  085%=      5-min Rain = 0
KSLS 270645Z 22009KT 20/17 A2991 RMK A01 T02040173  RH  085%=      5-min Rain = 0
KSLS 270650Z 23007KT 20/18 A2991 RMK A01 T02040175  RH  085%=      5-min Rain = 0
KSLS 270655Z 20006KT 20/17 A299 RMK A01 T02030173  RH  085%=      5-min Rain = 0
KSLS 270700Z 21007KT 20/17 A299 RMK A01 T02000172  RH  086%=      5-min Rain = 0
KSLS 270705Z 22007KT 20/17 A299 RMK A01 T01970171  RH  087%=      5-min Rain = 0
KSLS 270710Z 21006KT 20/17 A299 RMK A01 T01950170  RH  088%=      5-min Rain = 0
KSLS 270715Z 21007KT 19/17 A2989 RMK A01 T01930170  RH  089%=      5-min Rain = 0
KSLS 270720Z 20007KT 19/17 A2989 RMK A01 T01910170  RH  089%=      5-min Rain = 0
KSLS 270725Z 20007KT 19/17 A2989 RMK A01 T01910170  RH  090%=      5-min Rain = 0
KSLS 270730Z 20006KT 19/17 A2989 RMK A01 T01890168  RH  090%=      5-min Rain = 0
KSLS 270735Z 19006KT 19/17 A2989 RMK A01 T01860167  RH  091%=      5-min Rain = 0
KSLS 270740Z 18006KT 18/17 A2989 RMK A01 T01830166  RH  092%=      5-min Rain = 0
KSLS 270745Z 17005KT 18/17 A2989 RMK A01 T01810165  RH  092%=      5-min Rain = 0
KSLS 270750Z 16005KT 18/16 A2989 RMK A01 T01780162  RH  093%=      5-min Rain = 0
KSLS 270755Z 16004KT 18/16 A2989 RMK A01 T01750161  RH  094%=      5-min Rain = 0
KSLS 270800Z 15005KT 17/16 A2989 RMK A01 T01740161  RH  094%=      5-min Rain = 0
KSLS 270805Z 16005KT 17/16 A2989 RMK A01 T01730160  RH  095%=      5-min Rain = 0
KSLS 270810Z 16005KT 17/16 A2989 RMK A01 T01710159  RH  095%=      5-min Rain = 0
KSLS 270815Z 16005KT 17/16 A2989 RMK A01 T01700159  RH  095%=      5-min Rain = 0
KSLS 270820Z 16006KT 17/16 A2989 RMK A01 T01700158  RH  095%=      5-min Rain = 0
KSLS 270825Z 16007KT 17/16 A2988 RMK A01 T01700159  RH  096%=      5-min Rain = 0
KSLS 270830Z 16007KT 17/16 A2988 RMK A01 T01700160  RH  096%=      5-min Rain = 0
KSLS 270835Z 15007KT 17/16 A2988 RMK A01 T01710161  RH  096%=      5-min Rain = 0
KSLS 270840Z 16007KT 17/16 A2988 RMK A01 T01720163  RH  096%=      5-min Rain = 0
KSLS 270845Z 15007KT 17/16 A2988 RMK A01 T01720162  RH  096%=      5-min Rain = 0
KSLS 270850Z 15007KT 17/16 A2988 RMK A01 T01720163  RH  096%=      5-min Rain = 0
KSLS 270855Z 15007KT 17/16 A2988 RMK A01 T01730164  RH  096%=      5-min Rain = 0
KSLS 270900Z 15007KT 17/16 A2988 RMK A01 T01730164  RH  096%=      5-min Rain = 0
KSLS 270905Z 15007KT 17/16 A2988 RMK A01 T01730164  RH  096%=      5-min Rain = 0
KSLS 270910Z 15008KT 17/16 A2987 RMK A01 T01740164  RH  096%=      5-min Rain = 0
KSLS 270915Z 15007KT 18/17 A2987 RMK A01 T01750165  RH  096%=      5-min Rain = 0
KSLS 270920Z 16007KT 18/17 A2987 RMK A01 T01760166  RH  096%=      5-min Rain = 0
KSLS 270925Z 16005KT 18/17 A2987 RMK A01 T01760165  RH  096%=      5-min Rain = 0
KSLS 270930Z 15006KT 18/17 A2987 RMK A01 T01760166  RH  096%=      5-min Rain = 0
KSLS 270935Z 16006KT 18/17 A2987 RMK A01 T01780167  RH  095%=      5-min Rain = 0
KSLS 270940Z 15005KT 18/17 A2987 RMK A01 T01790167  RH  095%=      5-min Rain = 0
KSLS 270945Z 14005KT 18/17 A2987 RMK A01 T01790166  RH  094%=      5-min Rain = 0
KSLS 270950Z 13005KT 18/17 A2987 RMK A01 T01780165  RH  094%=      5-min Rain = 0
KSLS 270955Z 13005KT 18/16 A2987 RMK A01 T01770164  RH  095%=      5-min Rain = 0
KSLS 271000Z 14005KT 18/16 A2986 RMK A01 T01750164  RH  095%=      5-min Rain = 0
KSLS 271005Z 15006KT 17/16 A2986 RMK A01 T01740163  RH  095%=      5-min Rain = 0
KSLS 271010Z 15007KT 17/16 A2986 RMK A01 T01740163  RH  096%=      5-min Rain = 0
KSLS 271015Z 15006KT 17/16 A2986 RMK A01 T01740164  RH  096%=      5-min Rain = 0
KSLS 271020Z 15007KT 17/16 A2986 RMK A01 T01740164  RH  096%=      5-min Rain = 0
KSLS 271025Z 14006KT 17/16 A2986 RMK A01 T01730163  RH  096%=      5-min Rain = 0
KSLS 271030Z 14005KT 17/16 A2986 RMK A01 T01730163  RH  096%=      5-min Rain = 0
KSLS 271035Z 13004KT 17/16 A2987 RMK A01 T01720162  RH  096%=      5-min Rain = 0
KSLS 271040Z 12004KT 17/16 A2987 RMK A01 T01720162  RH  096%=      5-min Rain = 0
KSLS 271045Z 12004KT 17/16 A2987 RMK A01 T01710162  RH  096%=      5-min Rain = 0
KSLS 271050Z 12004KT 17/16 A2987 RMK A01 T01710161  RH  096%=      5-min Rain = 0
KSLS 271055Z 13004KT 17/16 A2987 RMK A01 T01690160  RH  096%=      5-min Rain = 0
KSLS 271100Z 14005KT 17/16 A2987 RMK A01 T01660157  RH  096%=      5-min Rain = 0
KSLS 271105Z 14006KT 16/16 A2987 RMK A01 T01640155  RH  096%=      5-min Rain = 0
KSLS 271110Z 14007KT 16/16 A2987 RMK A01 T01630155  RH  097%=      5-min Rain = 0
KSLS 271115Z 15006KT 16/16 A2987 RMK A01 T01640156  RH  097%=      5-min Rain = 0
KSLS 271120Z 15006KT 16/16 A2987 RMK A01 T01640156  RH  097%=      5-min Rain = 0
KSLS 271125Z 15005KT 16/16 A2988 RMK A01 T01630156  RH  098%=      5-min Rain = 0
KSLS 271130Z 15005KT 16/16 A2988 RMK A01 T01620155  RH  098%=      5-min Rain = 0
KSLS 271135Z 15005KT 16/15 A2988 RMK A01 T01610154  RH  098%=      5-min Rain = 0
KSLS 271140Z 15006KT 16/15 A2988 RMK A01 T01590152  RH  098%=      5-min Rain = 0
KSLS 271145Z 15006KT 16/15 A2988 RMK A01 T01600153  RH  098%=      5-min Rain = 0
KSLS 271150Z 15005KT 16/15 A2988 RMK A01 T01610154  RH  098%=      5-min Rain = 0
KSLS 271155Z 15005KT 16/16 A2988 RMK A01 T01610155  RH  098%=      5-min Rain = 0
KSLS 271200Z 14006KT 16/15 A2988 RMK A01 T01600154  RH  098%=      5-min Rain = 0
KSLS 271205Z 14006KT 16/16 A2988 RMK A01 T01610155  RH  098%=      5-min Rain = 0
KSLS 271210Z 14005KT 16/16 A2988 RMK A01 T01630157  RH  098%=      5-min Rain = 0
KSLS 271215Z 15005KT 17/16 A2988 RMK A01 T01650159  RH  098%=      5-min Rain = 0
KSLS 271220Z 16004KT 17/16 A2988 RMK A01 T01670161  RH  099%=      5-min Rain = 0
KSLS 271225Z 15003KT 17/16 A2988 RMK A01 T01690163  RH  098%=      5-min Rain = 0
KSLS 271230Z 15002KT 17/17 A2988 RMK A01 T01710165  RH  098%=      5-min Rain = 0
KSLS 271235Z 16002KT 17/17 A2989 RMK A01 T01740167  RH  098%=      5-min Rain = 0
KSLS 271240Z 16002KT 18/17 A2989 RMK A01 T01780170  RH  097%=      5-min Rain = 0
KSLS 271245Z 18003KT 18/17 A2989 RMK A01 T01830173  RH  096%=      5-min Rain = 0
KSLS 271250Z 18004KT 19/18 A2989 RMK A01 T01890179  RH  096%=      5-min Rain = 0
KSLS 271255Z 18006KT 20/18 A2989 RMK A01 T01950182  RH  095%=      5-min Rain = 0
KSLS 271300Z 18008KT 20/19 A2989 RMK A01 T02000185  RH  093%=      5-min Rain = 0
KSLS 271305Z 19009KT 20/19 A2989 RMK A01 T02030186  RH  092%=      5-min Rain = 0
KSLS 271310Z 19009KT 21/19 A2989 RMK A01 T02050187  RH  092%=      5-min Rain = 0
KSLS 271315Z 20010KT 21/19 A2989 RMK A01 T02070188  RH  091%=      5-min Rain = 0
KSLS 271320Z 20012KT 21/19 A2989 RMK A01 T02090188  RH  090%=      5-min Rain = 0
KSLS 271325Z 19014KT 21/19 A2989 RMK A01 T02110189  RH  089%=      5-min Rain = 0
KSLS 271330Z 20012G17KT 21/19 A2989 RMK A01 T02120190  RH  089%=      5-min Rain = 0
KSLS 271335Z 19015G20KT 21/19 A2989 RMK A01 T02140190  RH  088%=      5-min Rain = 0
KSLS 271340Z 20016G21KT 22/19 A2989 RMK A01 T02150189  RH  087%=      5-min Rain = 0
KSLS 271345Z 20014G20KT 22/19 A2989 RMK A01 T02180191  RH  087%=      5-min Rain = 0
KSLS 271350Z 20017G23KT 22/19 A2989 RMK A01 T02190190  RH  086%=      5-min Rain = 0
KSLS 271355Z 20016KT 22/19 A2988 RMK A01 T02200190  RH  085%=      5-min Rain = 0
KSLS 271400Z 20018KT 22/19 A2988 RMK A01 T02220190  RH  084%=      5-min Rain = 0
KSLS 271405Z 20016G21KT 22/19 A2988 RMK A01 T02240191  RH  084%=      5-min Rain = 0
KSLS 271410Z 20018KT 23/19 A2988 RMK A01 T02250189  RH  082%=      5-min Rain = 0
KSLS 271415Z 20018G23KT 23/19 A2989 RMK A01 T02260189  RH  082%=      5-min Rain = 0
KSLS 271420Z 20017KT 23/19 A2989 RMK A01 T02290189  RH  080%=      5-min Rain = 0
KSLS 271425Z 20017G22KT 23/19 A2989 RMK A01 T02300189  RH  080%=      5-min Rain = 0
KSLS 271430Z 20016KT 23/19 A2989 RMK A01 T02320189  RH  079%=      5-min Rain = 0
KSLS 271435Z 20017G22KT 23/19 A2989 RMK A01 T02340189  RH  078%=      5-min Rain = 0
KSLS 271440Z 20019KT 23/19 A2989 RMK A01 T02340185  RH  076%=      5-min Rain = 0
KSLS 271445Z 21017KT 24/19 A2989 RMK A01 T02350186  RH  076%=      5-min Rain = 0
KSLS 271450Z 20016G22KT 24/19 A2989 RMK A01 T02370187  RH  075%=      5-min Rain = 0
KSLS 271455Z 20017KT 24/19 A2989 RMK A01 T02390187  RH  075%=      5-min Rain = 0
KSLS 271500Z 20016G21KT 24/19 A2989 RMK A01 T02400186  RH  074%=      5-min Rain = 0
KSLS 271505Z 21016KT 24/19 A2989 RMK A01 T02410186  RH  073%=      5-min Rain = 0
KSLS 271510Z 20015G20KT 25/19 A2989 RMK A01 T02450188  RH  072%=      5-min Rain = 0
KSLS 271515Z 20015G23KT 25/19 A2988 RMK A01 T02460187  RH  072%=      5-min Rain = 0
KSLS 271520Z 20015G20KT 25/19 A2988 RMK A01 T02470185  RH  070%=      5-min Rain = 0
KSLS 271525Z 20015G20KT 25/19 A2988 RMK A01 T02500186  RH  069%=      5-min Rain = 0
KSLS 271530Z 19015KT 25/19 A2988 RMK A01 T02510185  RH  068%=      5-min Rain = 0
KSLS 271535Z 20016G21KT 25/18 A2988 RMK A01 T02530183  RH  067%=      5-min Rain = 0
KSLS 271540Z 20015G20KT 26/18 A2988 RMK A01 T02560183  RH  066%=      5-min Rain = 0
KSLS 271545Z 20016G21KT 26/18 A2988 RMK A01 T02560179  RH  064%=      5-min Rain = 0
KSLS 271550Z 20016KT 26/18 A2988 RMK A01 T02580180  RH  064%=      5-min Rain = 0
KSLS 271555Z 21015KT 26/18 A2988 RMK A01 T02610181  RH  063%=      5-min Rain = 0
KSLS 271600Z 20017KT 26/18 A2988 RMK A01 T02610179  RH  062%=      5-min Rain = 0
KSLS 271605Z 20017KT 26/18 A2988 RMK A01 T02640179  RH  061%=      5-min Rain = 0
KSLS 271610Z 20017KT 26/17 A2988 RMK A01 T02640174  RH  059%=      5-min Rain = 0
KSLS 271615Z 19016KT 27/17 A2988 RMK A01 T02650174  RH  059%=      5-min Rain = 0
KSLS 271620Z 19016KT 27/17 A2988 RMK A01 T02690174  RH  057%=      5-min Rain = 0
KSLS 271625Z 20015KT 27/17 A2988 RMK A01 T02720167  RH  054%=      5-min Rain = 0
KSLS 271630Z 21016G21KT 27/16 A2988 RMK A01 T02740163  RH  052%=      5-min Rain = 0
KSLS 271635Z 21014G21KT 28/16 A2988 RMK A01 T02770163  RH  051%=      5-min Rain = 0
KSLS 271640Z 21013G18KT 28/16 A2988 RMK A01 T02780161  RH  050%=      5-min Rain = 0
KSLS 271645Z 20014KT 28/16 A2988 RMK A01 T02800162  RH  050%=      5-min Rain = 0
KSLS 271650Z 21013G18KT 28/16 A2988 RMK A01 T02830160  RH  048%=      5-min Rain = 0
KSLS 271655Z 21013G18KT 28/15 A2988 RMK A01 T02830153  RH  046%=      5-min Rain = 0
KSLS 271700Z 21012G19KT 29/15 A2988 RMK A01 T02870148  RH  044%=      5-min Rain = 0
KSLS 271705Z 22013KT 29/15 A2987 RMK A01 T02880146  RH  043%=      5-min Rain = 0
KSLS 271710Z 21013KT 29/14 A2987 RMK A01 T02880143  RH  042%=      5-min Rain = 0
KSLS 271715Z 21013G18KT 29/15 A2987 RMK A01 T02910145  RH  042%=      5-min Rain = 0
KSLS 271720Z 22013G18KT 29/14 A2987 RMK A01 T02910141  RH  041%=      5-min Rain = 0
KSLS 271725Z 21012G19KT 29/15 A2987 RMK A01 T02930147  RH  042%=      5-min Rain = 0
KSLS 271730Z 21011G18KT 30/14 A2987 RMK A01 T02950139  RH  039%=      5-min Rain = 0
KSLS 271735Z 20012G17KT 30/14 A2987 RMK A01 T02950138  RH  039%=      5-min Rain = 0
KSLS 271740Z 20010KT 30/15 A2987 RMK A01 T02980145  RH  040%=      5-min Rain = 0
KSLS 271745Z 20012G17KT 30/14 A2986 RMK A01 T02980136  RH  038%=      5-min Rain = 0
KSLS 271750Z 20013G21KT 30/13 A2986 RMK A01 T02990129  RH  036%=      5-min Rain = 0
KSLS 271755Z 21013KT 30/12 A2986 RMK A01 T03020120  RH  033%=      5-min Rain = 0
KSLS 271800Z 21011KT 30/12 A2986 RMK A01 T03040121  RH  033%=      5-min Rain = 0
KSLS 271805Z 21013G19KT 31/12 A2985 RMK A01 T03050117  RH  032%=      5-min Rain = 0
KSLS 271810Z 20012G19KT 31/11 A2985 RMK A01 T03060109  RH  030%=      5-min Rain = 0
KSLS 271815Z 21010G18KT 31/11 A2985 RMK A01 T03090110  RH  030%=      5-min Rain = 0
KSLS 271820Z 20013KT 31/10 A2985 RMK A01 T03090102  RH  028%=      5-min Rain = 0
KSLS 271825Z 19012G19KT 31/11 A2985 RMK A01 T03080105  RH  029%=      5-min Rain = 0
KSLS 271830Z 20013G21KT 31/10 A2985 RMK A01 T03110104  RH  029%=      5-min Rain = 0
KSLS 271835Z 21012G18KT 31/09 A2985 RMK A01 T03100093  RH  027%=      5-min Rain = 0
KSLS 271840Z 19014KT 31/10 A2984 RMK A01 T03110096  RH  027%=      5-min Rain = 0
KSLS 271845Z 21014KT 31/10 A2984 RMK A01 T03120096  RH  027%=      5-min Rain = 0
KSLS 271850Z 21009G15KT 31/10 A2984 RMK A01 T03130095  RH  026%=      5-min Rain = 0
KSLS 271855Z 20011G17KT 32/10 A2984 RMK A01 T03160104  RH  028%=      5-min Rain = 0
KSLS 271900Z 19013G18KT 31/09 A2983 RMK A01 T03130091  RH  026%=      5-min Rain = 0
KSLS 271905Z 20012G18KT 32/09 A2983 RMK A01 T03150092  RH  025%=      5-min Rain = 0
KSLS 271910Z 20011G17KT 32/09 A2983 RMK A01 T03150088  RH  025%=      5-min Rain = 0
KSLS 271915Z 20013G19KT 32/09 A2983 RMK A01 T03200085  RH  024%=      5-min Rain = 0
KSLS 271920Z 18014G22KT 32/08 A2983 RMK A01 T03170078  RH  023%=      5-min Rain = 0
KSLS 271925Z 19015G20KT 32/08 A2982 RMK A01 T03190083  RH  023%=      5-min Rain = 0
KSLS 271930Z 18010G18KT 32/07 A2982 RMK A01 T03150072  RH  022%=      5-min Rain = 0
KSLS 271935Z 19012G18KT 32/08 A2982 RMK A01 T03200084  RH  023%=      5-min Rain = 0
KSLS 271940Z 21013G20KT 32/08 A2982 RMK A01 T03210075  RH  022%=      5-min Rain = 0
KSLS 271945Z 20014G23KT 32/08 A2981 RMK A01 T03200084  RH  023%=      5-min Rain = 0
KSLS 271950Z 21015G24KT 32/09 A2981 RMK A01 T03220090  RH  024%=      5-min Rain = 0
KSLS 271955Z 18010G16KT 32/10 A2981 RMK A01 T03210101  RH  026%=      5-min Rain = 0
KSLS 272000Z 19012G18KT 32/11 A298 RMK A01 T03220107  RH  027%=      5-min Rain = 0
KSLS 272005Z 19014G21KT 32/11 A298 RMK A01 T03220112  RH  028%=      5-min Rain = 0
KSLS 272010Z 18008G17KT 32/12 A298 RMK A01 T03190122  RH  031%=      5-min Rain = 0
KSLS 272015Z 17011KT 32/14 A298 RMK A01 T03170136  RH  034%=      5-min Rain = 0
KSLS 272020Z 17017G23KT 32/14 A298 RMK A01 T03230140  RH  034%=      5-min Rain = 0
KSLS 272025Z 18014G19KT 32/14 A298 RMK A01 T03200142  RH  035%=      5-min Rain = 0
KSLS 272030Z 21012G19KT 32/14 A2979 RMK A01 T03200141  RH  035%=      5-min Rain = 0
KSLS 272035Z 19013G19KT 31/14 A2979 RMK A01 T03120140  RH  036%=      5-min Rain = 0
KSLS 272040Z 16015G21KT 32/14 A2979 RMK A01 T03190144  RH  035%=      5-min Rain = 0
KSLS 272045Z 18018G24KT 32/14 A2978 RMK A01 T03230143  RH  034%=      5-min Rain = 0
KSLS 272050Z 17015G23KT 31/14 A2978 RMK A01 T03130142  RH  036%=      5-min Rain = 0
KSLS 272055Z 17017KT 32/14 A2978 RMK A01 T03170144  RH  036%=      5-min Rain = 0
KSLS 272100Z 17018G24KT 32/15 A2977 RMK A01 T03190149  RH  036%=      5-min Rain = 0
KSLS 272105Z 16019G26KT 32/15 A2977 RMK A01 T03200150  RH  037%=      5-min Rain = 0
KSLS 272110Z 16015G23KT 32/15 A2977 RMK A01 T03150153  RH  038%=      5-min Rain = 0
KSLS 272115Z 15017G23KT 31/15 A2977 RMK A01 T03140154  RH  039%=      5-min Rain = 0
KSLS 272120Z 16018G24KT 32/16 A2977 RMK A01 T03160156  RH  039%=      5-min Rain = 0
KSLS 272125Z 15018G24KT 32/16 A2976 RMK A01 T03180161  RH  040%=      5-min Rain = 0
KSLS 272130Z 16016G23KT 31/15 A2976 RMK A01 T03100153  RH  040%=      5-min Rain = 0
KSLS 272135Z 17018G24KT 31/15 A2976 RMK A01 T03140153  RH  039%=      5-min Rain = 0
KSLS 272140Z 16017G23KT 32/16 A2976 RMK A01 T03160158  RH  039%=      5-min Rain = 0
KSLS 272145Z 16021G28KT 32/15 A2975 RMK A01 T03180150  RH  037%=      5-min Rain = 0
KSLS 272150Z 16020G25KT 32/15 A2975 RMK A01 T03160150  RH  037%=      5-min Rain = 0
KSLS 272155Z 16017G22KT 31/15 A2975 RMK A01 T03140153  RH  039%=      5-min Rain = 0
KSLS 272200Z 16016G22KT 32/16 A2975 RMK A01 T03150159  RH  040%=      5-min Rain = 0
KSLS 272205Z 16019G26KT 32/16 A2975 RMK A01 T03160158  RH  039%=      5-min Rain = 0
KSLS 272210Z 16018G23KT 32/16 A2974 RMK A01 T03150160  RH  040%=      5-min Rain = 0
KSLS 272215Z 15019G25KT 31/16 A2974 RMK A01 T03140158  RH  040%=      5-min Rain = 0
KSLS 272220Z 16019G26KT 32/16 A2974 RMK A01 T03150156  RH  039%=      5-min Rain = 0
KSLS 272225Z 16018G24KT 32/16 A2974 RMK A01 T03160158  RH  040%=      5-min Rain = 0
KSLS 272230Z 16019G27KT 32/16 A2974 RMK A01 T03180157  RH  039%=      5-min Rain = 0
KSLS 272235Z 16019G25KT 32/15 A2974 RMK A01 T03160154  RH  038%=      5-min Rain = 0
KSLS 272240Z 16021G27KT 31/15 A2973 RMK A01 T03140148  RH  037%=      5-min Rain = 0
KSLS 272245Z 16020G27KT 31/15 A2973 RMK A01 T03140149  RH  038%=      5-min Rain = 0
KSLS 272250Z 16023G29KT 31/14 A2973 RMK A01 T03120143  RH  037%=      5-min Rain = 0
KSLS 272255Z 15020G26KT 31/14 A2973 RMK A01 T03120142  RH  036%=      5-min Rain = 0
KSLS 272300Z 16023G30KT 31/14 A2973 RMK A01 T03120140  RH  036%=      5-min Rain = 0
KSLS 272305Z 16020G26KT 31/14 A2973 RMK A01 T03120140  RH  036%=      5-min Rain = 0
KSLS 272310Z 17020G25KT 31/14 A2973 RMK A01 T03120136  RH  035%=      5-min Rain = 0
KSLS 272315Z 17019G26KT 31/14 A2973 RMK A01 T03110138  RH  036%=      5-min Rain = 0
KSLS 272320Z 16019G29KT 31/14 A2973 RMK A01 T03110143  RH  037%=      5-min Rain = 0
KSLS 272325Z 16020G27KT 31/15 A2973 RMK A01 T03100147  RH  038%=      5-min Rain = 0
KSLS 272330Z 16019G26KT 31/15 A2972 RMK A01 T03080150  RH  039%=      5-min Rain = 0
KSLS 272335Z 16020G25KT 31/15 A2972 RMK A01 T03080150  RH  039%=      5-min Rain = 0
KSLS 272340Z 15019KT 31/16 A2972 RMK A01 T03070156  RH  041%=      5-min Rain = 0
KSLS 272345Z 16019G25KT 31/16 A2972 RMK A01 T03060159  RH  042%=      5-min Rain = 0
KSLS 272350Z 16018G23KT 31/16 A2972 RMK A01 T03060157  RH  042%=      5-min Rain = 0
KSLS 272355Z 16019G26KT 31/16 A2972 RMK A01 T03050162  RH  043%=      5-min Rain = 0
KSLS 280000Z 16019G24KT 30/16 A2971 RMK A01 T03040162  RH  043%=      5-min Rain = 0
KSLS 280005Z 16020G25KT 30/17 A2971 RMK A01 T03030165  RH  045%=      5-min Rain = 0
KSLS 280010Z 16020G26KT 30/17 A2971 RMK A01 T03030167  RH  045%=      5-min Rain = 0
KSLS 280015Z 17018KT 30/17 A2971 RMK A01 T03020168  RH  046%=      5-min Rain = 0
KSLS 280020Z 16019G26KT 30/16 A2971 RMK A01 T03020161  RH  043%=      5-min Rain = 0
KSLS 280025Z 16019G24KT 30/17 A2971 RMK A01 T03000165  RH  045%=      5-min Rain = 0
KSLS 280030Z 16018G23KT 30/17 A2971 RMK A01 T03000167  RH  046%=      5-min Rain = 0
KSLS 280035Z 16020G26KT 30/17 A2971 RMK A01 T02990166  RH  046%=      5-min Rain = 0
KSLS 280040Z 15020KT 30/17 A2971 RMK A01 T02980170  RH  047%=      5-min Rain = 0
KSLS 280045Z 16019G25KT 30/17 A297 RMK A01 T02960172  RH  048%=      5-min Rain = 0
KSLS 280050Z 16020G27KT 30/17 A297 RMK A01 T02950172  RH  049%=      5-min Rain = 0
KSLS 280055Z 16019G24KT 29/17 A297 RMK A01 T02940174  RH  050%=      5-min Rain = 0
KSLS 280100Z 15019G24KT 29/18 A2971 RMK A01 T02920179  RH  052%=      5-min Rain = 0
KSLS 280105Z 15021G26KT 29/18 A297 RMK A01 T02910179  RH  052%=      5-min Rain = 0
KSLS 280110Z 15021G26KT 29/18 A2971 RMK A01 T02880183  RH  054%=      5-min Rain = 0
KSLS 280115Z 16021KT 29/19 A2971 RMK A01 T02860185  RH  056%=      5-min Rain = 0
KSLS 280120Z 15021KT 28/19 A2971 RMK A01 T02830186  RH  057%=      5-min Rain = 0
KSLS 280125Z 15021G27KT 28/19 A2971 RMK A01 T02810186  RH  058%=      5-min Rain = 0
KSLS 280130Z 16020KT 28/19 A2971 RMK A01 T02780186  RH  059%=      5-min Rain = 0
KSLS 280135Z 16019KT 28/19 A2971 RMK A01 T02770186  RH  059%=      5-min Rain = 0
KSLS 280140Z 16019G24KT 28/19 A2971 RMK A01 T02750185  RH  059%=      5-min Rain = 0
KSLS 280145Z 16017G22KT 27/18 A2971 RMK A01 T02730184  RH  060%=      5-min Rain = 0
KSLS 280150Z 16017G22KT 27/19 A2971 RMK A01 T02720185  RH  061%=      5-min Rain = 0
KSLS 280155Z 16017KT 27/19 A2971 RMK A01 T02690185  RH  062%=      5-min Rain = 0
KSLS 280200Z 16016G21KT 27/19 A2972 RMK A01 T02680186  RH  062%=      5-min Rain = 0
KSLS 280205Z 16015G20KT 27/19 A2972 RMK A01 T02660185  RH  063%=      5-min Rain = 0
KSLS 280210Z 16014KT 26/19 A2972 RMK A01 T02640185  RH  063%=      5-min Rain = 0
KSLS 280215Z 16014KT 26/19 A2972 RMK A01 T02620185  RH  064%=      5-min Rain = 0
KSLS 280220Z 16013G18KT 26/19 A2972 RMK A01 T02610186  RH  065%=      5-min Rain = 0
KSLS 280225Z 16012KT 26/19 A2972 RMK A01 T02600185  RH  065%=      5-min Rain = 0
KSLS 280230Z 16013KT 26/19 A2972 RMK A01 T02570185  RH  066%=      5-min Rain = 0
KSLS 280235Z 16013KT 26/19 A2972 RMK A01 T02560185  RH  067%=      5-min Rain = 0
KSLS 280240Z 16013KT 26/19 A2972 RMK A01 T02550186  RH  067%=      5-min Rain = 0
KSLS 280245Z 16014KT 25/19 A2972 RMK A01 T02540186  RH  068%=      5-min Rain = 0
KSLS 280250Z 16013KT 25/19 A2972 RMK A01 T02520186  RH  069%=      5-min Rain = 0
KSLS 280255Z 16014KT 25/19 A2972 RMK A01 T02520187  RH  069%=      5-min Rain = 0
KSLS 280300Z 16015KT 25/19 A2972 RMK A01 T02520187  RH  069%=      5-min Rain = 0
KSLS 280305Z 16015KT 25/19 A2972 RMK A01 T02510187  RH  069%=      5-min Rain = 0
KSLS 280310Z 17016KT 25/19 A2972 RMK A01 T02510186  RH  069%=      5-min Rain = 0
KSLS 280315Z 16015KT 25/19 A2972 RMK A01 T02500185  RH  069%=      5-min Rain = 0
KSLS 280320Z 16015KT 25/18 A2972 RMK A01 T02490184  RH  069%=      5-min Rain = 0
KSLS 280325Z 17015KT 25/18 A2972 RMK A01 T02470184  RH  070%=      5-min Rain = 0
KSLS 280330Z 17015KT 25/18 A2972 RMK A01 T02460183  RH  070%=      5-min Rain = 0
KSLS 280335Z 16014KT 24/18 A2972 RMK A01 T02440184  RH  071%=      5-min Rain = 0
KSLS 280340Z 16013KT 24/18 A2972 RMK A01 T02430184  RH  071%=      5-min Rain = 0
KSLS 280345Z 17012KT 24/18 A2973 RMK A01 T02410184  RH  072%=      5-min Rain = 0
KSLS 280350Z 17013KT 24/18 A2973 RMK A01 T02400184  RH  073%=      5-min Rain = 0
KSLS 280355Z 17014KT 24/18 A2973 RMK A01 T02390184  RH  073%=      5-min Rain = 0
KSLS 280400Z 17014KT 24/18 A2973 RMK A01 T02390184  RH  073%=      5-min Rain = 0
KSLS 280405Z 17014KT 24/18 A2973 RMK A01 T02390184  RH  073%=      5-min Rain = 0
KSLS 280410Z 17014KT 24/18 A2973 RMK A01 T02380184  RH  074%=      5-min Rain = 0
KSLS 280415Z 17014KT 24/18 A2973 RMK A01 T02380184  RH  074%=      5-min Rain = 0
KSLS 280420Z 17013KT 24/18 A2973 RMK A01 T02370184  RH  074%=      5-min Rain = 0
KSLS 280425Z 17013KT 24/18 A2973 RMK A01 T02360184  RH  075%=      5-min Rain = 0
KSLS 280430Z 17014KT 24/19 A2973 RMK A01 T02350185  RH  075%=      5-min Rain = 0
KSLS 280435Z 17013KT 23/19 A2973 RMK A01 T02340185  RH  076%=      5-min Rain = 0
KSLS 280440Z 17014KT 23/19 A2973 RMK A01 T02340185  RH  076%=      5-min Rain = 0
KSLS 280445Z 17015KT 23/19 A2973 RMK A01 T02340186  RH  076%=      5-min Rain = 0
KSLS 280450Z 17015G21KT 24/19 A2973 RMK A01 T02360186  RH  075%=      5-min Rain = 0
KSLS 280455Z 17017KT 24/19 A2973 RMK A01 T02370185  RH  075%=      5-min Rain = 0

Page generated in 0.0411 seconds.